Time;durP1;ratioP1;P1;durP2;ratioP2;P2;SDS_P1;SDS_P2;PMS_P1;PMS_P2;Temp;Humidity;BMP_temperature;BMP_pressure;BME280_temperature;BME280_humidity;BME280_pressure;Samples;Min_cycle;Max_cycle;Signal;HPM_P1;HPM_P2
2021/12/10 00:00:35;;;;;;;176.07;164.63;;;3.90;99.90;;;;;;5047518;28;20241;-80
2021/12/10 00:03:04;;;;;;;173.67;162.50;;;3.90;99.90;;;;;;5060025;28;20245;-81
2021/12/10 00:05:35;;;;;;;174.63;163.73;;;3.90;99.90;;;;;;5057991;28;20206;-81
2021/12/10 00:08:01;;;;;;;175.13;164.10;;;4.00;99.90;;;;;;5059284;28;20205;-81
2021/12/10 00:10:36;;;;;;;176.80;166.27;;;3.90;99.90;;;;;;5047907;28;20193;-80
2021/12/10 00:13:05;;;;;;;169.23;158.17;;;3.90;99.90;;;;;;5059190;28;20185;-79
2021/12/10 00:15:32;;;;;;;170.70;159.60;;;3.90;99.90;;;;;;5060103;28;20206;-81
2021/12/10 00:17:59;;;;;;;161.10;150.40;;;3.90;99.90;;;;;;5032872;28;20251;-80
2021/12/10 00:20:29;;;;;;;157.87;147.27;;;3.90;99.90;;;;;;5048715;28;20213;-81
2021/12/10 00:23:00;;;;;;;154.37;144.47;;;3.90;99.90;;;;;;5058827;28;20189;-79
2021/12/10 00:25:36;;;;;;;157.40;147.10;;;3.90;99.90;;;;;;5061368;28;20190;-79
2021/12/10 00:28:13;;;;;;;153.90;143.80;;;4.00;99.90;;;;;;5058888;28;20214;-81
2021/12/10 00:30:54;;;;;;;154.13;144.27;;;4.00;99.90;;;;;;5060742;28;20192;-80
2021/12/10 00:33:24;;;;;;;152.67;142.70;;;4.00;99.90;;;;;;5058693;28;20185;-81
2021/12/10 00:35:50;;;;;;;151.53;141.93;;;4.00;99.90;;;;;;5060668;28;20177;-81
2021/12/10 00:38:17;;;;;;;149.30;139.47;;;4.10;99.90;;;;;;5063818;28;20220;-80
2021/12/10 00:40:43;;;;;;;149.40;139.53;;;4.00;99.90;;;;;;5075794;28;20202;-80
2021/12/10 00:43:09;;;;;;;149.00;139.20;;;4.00;99.90;;;;;;5058421;28;20281;-80
2021/12/10 00:45:35;;;;;;;148.20;139.03;;;4.10;99.90;;;;;;5059657;28;20325;-80
2021/12/10 00:48:02;;;;;;;148.80;139.20;;;4.00;99.90;;;;;;5059842;28;20278;-80
2021/12/10 00:50:42;;;;;;;145.13;135.77;;;4.00;99.90;;;;;;5059232;28;20228;-80
2021/12/10 00:53:07;;;;;;;146.23;136.70;;;4.00;99.90;;;;;;5058956;28;21181;-80
2021/12/10 00:55:33;;;;;;;145.87;135.33;;;4.00;99.90;;;;;;5046828;28;20186;-80
2021/12/10 00:58:01;;;;;;;142.53;133.90;;;4.00;99.90;;;;;;5047964;28;20202;-81
2021/12/10 01:00:41;;;;;;;137.10;128.03;;;4.00;99.90;;;;;;5047285;28;20340;-79
2021/12/10 01:03:11;;;;;;;141.33;132.27;;;4.00;99.90;;;;;;5064800;28;20739;-78
2021/12/10 01:05:38;;;;;;;137.50;129.20;;;3.90;99.90;;;;;;5060971;28;20746;-79
2021/12/10 01:08:04;;;;;;;140.63;131.27;;;3.90;99.90;;;;;;5068187;28;20278;-79
2021/12/10 01:10:37;;;;;;;139.00;130.13;;;3.90;99.90;;;;;;5043802;28;20197;-80
2021/12/10 01:13:08;;;;;;;138.07;129.50;;;3.80;99.90;;;;;;5063967;28;20194;-81
2021/12/10 01:24:14;;;;;;;135.33;126.73;;;3.80;99.90;;;;;;5062402;28;20200;-81
2021/12/10 01:29:16;;;;;;;138.77;129.43;;;3.80;99.90;;;;;;5062314;28;20858;-80
2021/12/10 01:31:43;;;;;;;130.57;122.67;;;3.80;99.90;;;;;;5062775;28;20192;-80
2021/12/10 01:34:10;;;;;;;134.33;125.70;;;3.70;99.90;;;;;;5062678;28;20197;-80
2021/12/10 01:36:36;;;;;;;133.23;124.80;;;3.80;99.90;;;;;;5068007;28;20212;-81
2021/12/10 01:39:07;;;;;;;134.10;125.80;;;3.80;99.90;;;;;;5051987;28;20205;-81
2021/12/10 01:41:37;;;;;;;133.90;125.77;;;3.80;99.90;;;;;;5062112;28;20205;-80
2021/12/10 01:44:14;;;;;;;132.77;124.63;;;3.80;99.90;;;;;;5065477;28;20208;-80
2021/12/10 01:46:41;;;;;;;133.97;125.77;;;3.80;99.90;;;;;;5063201;28;20180;-80
2021/12/10 01:49:08;;;;;;;132.33;123.50;;;3.80;99.90;;;;;;5066985;28;20259;-81
2021/12/10 01:51:36;;;;;;;129.13;121.07;;;3.80;99.90;;;;;;5061784;28;20182;-81
2021/12/10 01:54:13;;;;;;;130.00;122.50;;;3.70;99.90;;;;;;5062339;28;20185;-81
2021/12/10 01:56:40;;;;;;;127.83;119.83;;;3.70;99.90;;;;;;5062127;28;20182;-81
2021/12/10 01:59:08;;;;;;;130.57;123.13;;;3.70;99.90;;;;;;5077718;28;20224;-80
2021/12/10 02:01:42;;;;;;;128.53;120.33;;;3.80;99.90;;;;;;5062151;28;20190;-82
2021/12/10 02:04:11;;;;;;;127.40;119.83;;;3.70;99.90;;;;;;5061325;28;20249;-80
2021/12/10 02:06:38;;;;;;;126.37;118.30;;;3.70;99.90;;;;;;5082087;28;20190;-80
2021/12/10 02:09:05;;;;;;;125.03;117.37;;;3.70;99.90;;;;;;5064203;28;20245;-80
2021/12/10 02:11:31;;;;;;;124.77;117.43;;;3.70;99.90;;;;;;5050621;28;20205;-81
2021/12/10 02:13:57;;;;;;;122.27;115.27;;;3.70;99.90;;;;;;5059916;28;20193;-80
2021/12/10 02:16:23;;;;;;;125.57;117.63;;;3.80;99.90;;;;;;5049526;28;20512;-79
2021/12/10 02:18:49;;;;;;;126.13;118.17;;;3.80;99.90;;;;;;5066191;28;20312;-81
2021/12/10 02:21:18;;;;;;;124.20;116.47;;;3.80;99.90;;;;;;5050236;28;20261;-81
2021/12/10 02:23:54;;;;;;;121.83;114.67;;;3.90;99.90;;;;;;5059914;28;20706;-80
2021/12/10 02:26:20;;;;;;;121.27;113.40;;;3.90;99.90;;;;;;5060011;28;20188;-79
2021/12/10 02:28:45;;;;;;;121.23;113.80;;;4.10;99.90;;;;;;5032480;28;20213;-81
2021/12/10 02:31:13;;;;;;;121.00;113.23;;;4.00;99.90;;;;;;5049987;28;20206;-79
2021/12/10 02:33:39;;;;;;;117.40;111.00;;;4.00;99.90;;;;;;5061778;28;20194;-80
2021/12/10 02:36:10;;;;;;;118.67;111.93;;;4.10;99.90;;;;;;5065181;28;20301;-80
2021/12/10 02:38:37;;;;;;;118.10;110.93;;;4.10;99.90;;;;;;5033802;28;20197;-80
2021/12/10 02:41:03;;;;;;;113.47;107.00;;;4.10;99.90;;;;;;5051036;28;20189;-80
2021/12/10 02:43:28;;;;;;;115.50;108.87;;;4.20;99.90;;;;;;5062046;28;20194;-80
2021/12/10 02:45:56;;;;;;;115.77;108.83;;;4.20;99.90;;;;;;5049770;28;20281;-80
2021/12/10 02:48:23;;;;;;;113.47;107.20;;;4.20;99.90;;;;;;5061233;28;20290;-81
2021/12/10 02:50:51;;;;;;;116.10;109.50;;;4.30;99.90;;;;;;5049703;28;20243;-80
2021/12/10 02:53:22;;;;;;;118.60;111.93;;;4.30;99.90;;;;;;5049930;28;20190;-80
2021/12/10 02:55:48;;;;;;;121.30;114.27;;;4.20;99.90;;;;;;5034733;28;20208;-81
2021/12/10 02:58:14;;;;;;;122.80;115.57;;;4.20;99.90;;;;;;5048813;28;20194;-81
2021/12/10 03:00:57;;;;;;;120.43;113.67;;;4.20;99.90;;;;;;5031584;28;20233;-81
2021/12/10 03:03:25;;;;;;;119.67;113.07;;;4.20;99.90;;;;;;5066277;28;20606;-81
2021/12/10 03:05:51;;;;;;;120.03;113.40;;;4.20;99.90;;;;;;5049235;28;20193;-80
2021/12/10 03:08:17;;;;;;;119.53;112.87;;;4.20;99.90;;;;;;5049056;28;20699;-81
2021/12/10 03:10:43;;;;;;;120.00;112.33;;;4.20;99.90;;;;;;5066732;28;20221;-80
2021/12/10 03:13:10;;;;;;;118.27;111.77;;;4.20;99.90;;;;;;5059544;28;20190;-81
2021/12/10 03:15:37;;;;;;;118.43;111.43;;;4.20;99.90;;;;;;5058966;28;20177;-80
2021/12/10 03:18:07;;;;;;;119.93;112.97;;;4.30;99.90;;;;;;5043071;28;20277;-80
2021/12/10 03:20:33;;;;;;;117.53;110.87;;;4.20;99.90;;;;;;5060904;28;20209;-80
2021/12/10 03:23:00;;;;;;;122.13;115.13;;;4.20;99.90;;;;;;5058943;28;20202;-81
2021/12/10 03:25:26;;;;;;;124.67;117.90;;;4.30;99.90;;;;;;5065708;28;20193;-81
2021/12/10 03:27:52;;;;;;;129.47;122.67;;;4.30;99.90;;;;;;5062098;28;20706;-82
2021/12/10 03:30:26;;;;;;;133.73;126.30;;;4.20;99.90;;;;;;5047774;28;20191;-81
2021/12/10 03:32:52;;;;;;;138.57;130.80;;;4.30;99.90;;;;;;5080813;28;20189;-81
2021/12/10 03:35:32;;;;;;;148.70;140.33;;;4.20;99.90;;;;;;5047422;28;20681;-82
2021/12/10 03:38:00;;;;;;;154.83;145.93;;;4.20;99.90;;;;;;5061294;28;20212;-81
2021/12/10 03:40:26;;;;;;;157.63;148.77;;;4.20;99.90;;;;;;5057933;28;20318;-81
2021/12/10 03:42:58;;;;;;;165.17;156.13;;;4.10;99.90;;;;;;5065568;28;20616;-80
2021/12/10 03:45:26;;;;;;;162.60;153.20;;;4.10;99.90;;;;;;5063934;28;20969;-80
2021/12/10 03:47:51;;;;;;;165.63;156.23;;;4.10;99.90;;;;;;5059995;28;20206;-81
2021/12/10 03:50:25;;;;;;;165.63;156.73;;;4.10;99.90;;;;;;5059187;28;20202;-80
2021/12/10 03:52:51;;;;;;;162.83;152.97;;;4.10;99.90;;;;;;5064223;28;20182;-80
2021/12/10 03:55:18;;;;;;;152.90;144.10;;;4.10;99.90;;;;;;5058853;28;20182;-79
2021/12/10 03:57:45;;;;;;;155.27;146.63;;;4.10;99.90;;;;;;5058583;28;20181;-80
2021/12/10 04:00:11;;;;;;;154.77;146.03;;;4.10;99.90;;;;;;5060628;28;20303;-80
2021/12/10 04:02:37;;;;;;;153.63;145.30;;;4.20;99.90;;;;;;5047117;28;20597;-80
2021/12/10 04:05:03;;;;;;;151.23;143.13;;;4.20;99.90;;;;;;5063747;28;20214;-81
2021/12/10 04:07:28;;;;;;;150.13;141.40;;;4.20;99.90;;;;;;5057897;28;20563;-79
2021/12/10 04:09:55;;;;;;;149.37;141.23;;;4.20;99.90;;;;;;5046827;28;20659;-81
2021/12/10 04:12:22;;;;;;;148.57;140.10;;;4.20;99.90;;;;;;5047706;28;20205;-79
2021/12/10 04:14:49;;;;;;;143.93;135.37;;;4.30;99.90;;;;;;5059264;28;20297;-80
2021/12/10 04:17:17;;;;;;;147.00;138.43;;;4.30;99.90;;;;;;5059806;28;20194;-79
2021/12/10 04:19:45;;;;;;;144.27;136.37;;;4.40;99.90;;;;;;5058863;28;20262;-81
2021/12/10 04:22:13;;;;;;;145.27;137.00;;;4.30;99.90;;;;;;5031376;28;20239;-80
2021/12/10 04:24:40;;;;;;;144.37;135.93;;;4.30;99.90;;;;;;5057706;28;20194;-81
2021/12/10 04:27:08;;;;;;;142.40;134.50;;;4.30;99.90;;;;;;5048057;28;20235;-80
2021/12/10 04:29:35;;;;;;;139.47;131.00;;;4.30;99.90;;;;;;5059902;28;20297;-79
2021/12/10 04:32:01;;;;;;;133.83;126.70;;;4.30;99.90;;;;;;5048090;28;20187;-81
2021/12/10 04:34:27;;;;;;;136.17;128.73;;;4.30;99.90;;;;;;5060418;28;20603;-80
2021/12/10 04:36:56;;;;;;;131.37;123.77;;;4.30;99.90;;;;;;5031210;28;20228;-81
2021/12/10 04:39:22;;;;;;;127.27;120.17;;;4.30;99.90;;;;;;5058882;28;20224;-80
2021/12/10 04:41:48;;;;;;;129.53;122.17;;;4.40;99.90;;;;;;5050134;28;20791;-79
2021/12/10 04:44:14;;;;;;;126.77;119.47;;;4.40;99.90;;;;;;5068220;28;20193;-80
2021/12/10 04:46:40;;;;;;;127.07;119.93;;;4.40;99.90;;;;;;5062974;28;21041;-80
2021/12/10 04:49:10;;;;;;;124.30;117.33;;;4.40;99.90;;;;;;5062460;28;20256;-81
2021/12/10 04:51:46;;;;;;;117.97;111.47;;;4.50;99.90;;;;;;5063937;28;20547;-80
2021/12/10 04:54:13;;;;;;;118.23;111.57;;;4.50;99.90;;;;;;5051220;28;20235;-80
2021/12/10 04:56:40;;;;;;;114.47;108.13;;;4.50;99.90;;;;;;5051787;28;20197;-80
2021/12/10 04:59:09;;;;;;;112.03;106.13;;;4.50;99.90;;;;;;5062789;28;20196;-80
2021/12/10 05:01:35;;;;;;;111.87;105.87;;;4.50;99.90;;;;;;5061313;28;20226;-80
2021/12/10 05:04:04;;;;;;;111.77;105.53;;;4.50;99.90;;;;;;5063245;28;20221;-81
2021/12/10 05:06:31;;;;;;;107.90;101.57;;;4.60;99.90;;;;;;5063625;28;20214;-81
2021/12/10 05:08:56;;;;;;;105.13;99.40;;;4.60;99.90;;;;;;5051007;28;20209;-81
2021/12/10 05:11:22;;;;;;;105.60;99.63;;;4.60;99.90;;;;;;5068293;28;20202;-81
2021/12/10 05:13:48;;;;;;;103.17;97.70;;;4.60;99.90;;;;;;5062626;28;20277;-80
2021/12/10 05:16:15;;;;;;;104.43;98.50;;;4.60;99.90;;;;;;5062065;28;20948;-81
2021/12/10 05:18:44;;;;;;;103.77;97.93;;;4.60;99.90;;;;;;5063742;28;20213;-79
2021/12/10 05:21:12;;;;;;;104.17;98.63;;;4.60;99.90;;;;;;5054235;28;20657;-80
2021/12/10 05:23:38;;;;;;;112.40;106.07;;;4.60;99.90;;;;;;5066899;28;20592;-81
2021/12/10 05:26:06;;;;;;;127.73;120.83;;;4.60;99.90;;;;;;5064485;28;20202;-80
2021/12/10 05:28:33;;;;;;;141.83;134.30;;;4.60;99.90;;;;;;5059834;28;20570;-80
2021/12/10 05:30:59;;;;;;;143.67;135.97;;;4.50;99.90;;;;;;5049826;28;20490;-80
2021/12/10 05:33:28;;;;;;;149.47;141.03;;;4.40;99.90;;;;;;5051746;28;20597;-81
2021/12/10 05:35:57;;;;;;;156.47;147.90;;;4.30;99.90;;;;;;5064422;28;20543;-80
2021/12/10 05:38:22;;;;;;;167.00;157.83;;;4.30;99.90;;;;;;5077913;28;20543;-80
2021/12/10 05:40:51;;;;;;;185.07;174.57;;;4.30;99.90;;;;;;5068366;28;20200;-80
2021/12/10 05:43:18;;;;;;;196.67;185.00;;;4.30;99.90;;;;;;5063640;28;20340;-81
2021/12/10 05:45:44;;;;;;;211.33;200.10;;;4.30;99.90;;;;;;5063511;28;20282;-81
2021/12/10 05:48:10;;;;;;;262.60;248.53;;;4.30;99.90;;;;;;5050473;28;20311;-80
2021/12/10 05:50:36;;;;;;;363.63;341.77;;;4.30;99.90;;;;;;5064967;28;20213;-80
2021/12/10 05:53:02;;;;;;;393.13;368.40;;;4.30;99.90;;;;;;5048945;28;20780;-81
2021/12/10 05:55:28;;;;;;;411.53;386.00;;;4.20;99.90;;;;;;5066440;28;20192;-81
2021/12/10 05:57:54;;;;;;;413.20;385.60;;;4.20;99.90;;;;;;5061991;28;20190;-80
2021/12/10 06:00:32;;;;;;;414.20;385.87;;;4.20;99.90;;;;;;5047805;28;20281;-81
2021/12/10 06:02:59;;;;;;;426.73;396.63;;;4.20;99.90;;;;;;5076929;28;20197;-81
2021/12/10 06:05:26;;;;;;;532.37;492.70;;;4.20;99.90;;;;;;5066009;28;20205;-79
2021/12/10 06:07:52;;;;;;;530.47;490.90;;;4.10;99.90;;;;;;5042233;28;20209;-81
2021/12/10 06:10:20;;;;;;;520.07;482.60;;;4.10;99.90;;;;;;5043372;28;20188;-80
2021/12/10 06:12:47;;;;;;;515.50;478.07;;;4.10;99.90;;;;;;5059919;28;20194;-80
2021/12/10 06:15:15;;;;;;;519.27;481.60;;;4.10;99.90;;;;;;5060129;28;20182;-79
2021/12/10 06:17:41;;;;;;;528.23;489.60;;;4.10;99.90;;;;;;5066168;28;20567;-79
2021/12/10 06:20:10;;;;;;;518.37;480.70;;;4.10;99.90;;;;;;5049455;28;20208;-80
2021/12/10 06:22:36;;;;;;;518.00;480.27;;;4.00;99.90;;;;;;5062934;28;20204;-80
2021/12/10 06:25:05;;;;;;;530.87;491.87;;;4.10;99.90;;;;;;5049797;28;20251;-80
2021/12/10 06:27:31;;;;;;;549.70;508.07;;;4.00;99.90;;;;;;5061094;28;20182;-81
2021/12/10 06:29:58;;;;;;;543.57;502.43;;;4.00;99.90;;;;;;5031260;28;20189;-80
2021/12/10 06:32:24;;;;;;;552.07;509.97;;;4.00;99.90;;;;;;5060022;28;20213;-80
2021/12/10 06:34:50;;;;;;;546.03;504.77;;;4.00;99.90;;;;;;5032690;28;20294;-79
2021/12/10 06:37:16;;;;;;;544.00;502.77;;;4.00;99.90;;;;;;5061651;28;20335;-79
2021/12/10 06:39:41;;;;;;;542.53;500.77;;;4.00;99.90;;;;;;5064299;28;20265;-80
2021/12/10 06:42:07;;;;;;;552.73;510.20;;;4.00;99.90;;;;;;5065970;28;21117;-78
2021/12/10 06:44:33;;;;;;;550.23;508.27;;;4.00;99.90;;;;;;5059961;28;20614;-81
2021/12/10 06:46:59;;;;;;;563.07;520.27;;;4.00;99.90;;;;;;5031704;28;20265;-80
2021/12/10 06:49:24;;;;;;;561.50;518.70;;;4.00;99.90;;;;;;5048638;28;20335;-80
2021/12/10 06:51:50;;;;;;;558.90;516.23;;;4.00;99.90;;;;;;5061894;28;20178;-80
2021/12/10 06:54:16;;;;;;;555.97;513.40;;;4.00;99.90;;;;;;5066485;28;20188;-79
2021/12/10 06:56:42;;;;;;;565.07;522.53;;;4.00;99.90;;;;;;5060774;28;20198;-81
2021/12/10 06:59:09;;;;;;;564.77;522.63;;;4.00;99.90;;;;;;5066028;28;20206;-81
2021/12/10 07:01:41;;;;;;;555.90;514.17;;;4.00;99.90;;;;;;5059038;28;20237;-81
2021/12/10 07:04:10;;;;;;;569.70;526.60;;;3.90;99.90;;;;;;5058444;28;20292;-81
2021/12/10 07:06:37;;;;;;;569.37;526.87;;;4.00;99.90;;;;;;5058626;28;20936;-80
2021/12/10 07:09:09;;;;;;;568.03;526.33;;;4.00;99.90;;;;;;5065700;28;20224;-80
2021/12/10 07:11:35;;;;;;;579.87;537.80;;;3.90;99.90;;;;;;5060359;28;20190;-81
2021/12/10 07:14:02;;;;;;;583.83;541.23;;;3.90;99.90;;;;;;5060598;28;20189;-80
2021/12/10 07:16:29;;;;;;;581.37;538.43;;;3.90;99.90;;;;;;5044182;28;20189;-80
2021/12/10 07:18:56;;;;;;;576.53;533.43;;;3.90;99.90;;;;;;5049666;28;20209;-81
2021/12/10 07:21:22;;;;;;;586.43;543.90;;;3.90;99.90;;;;;;5066165;28;20691;-80
2021/12/10 07:23:48;;;;;;;574.60;531.67;;;3.90;99.90;;;;;;5066267;28;20202;-80
2021/12/10 07:26:14;;;;;;;591.30;547.83;;;3.90;99.90;;;;;;5067061;28;20549;-81
2021/12/10 07:28:41;;;;;;;579.30;536.17;;;3.90;99.90;;;;;;5027544;28;20210;-80
2021/12/10 07:31:11;;;;;;;569.63;527.53;;;3.90;99.90;;;;;;5061329;28;20177;-80
2021/12/10 07:33:37;;;;;;;572.53;530.10;;;3.90;99.90;;;;;;5058745;28;20196;-81
2021/12/10 07:36:04;;;;;;;579.47;537.03;;;3.90;99.90;;;;;;5037125;28;20203;-82
2021/12/10 07:38:30;;;;;;;577.50;534.63;;;3.90;99.90;;;;;;5066991;28;20185;-81
2021/12/10 07:40:56;;;;;;;580.23;537.87;;;4.00;99.90;;;;;;5064863;28;20325;-80
2021/12/10 07:43:22;;;;;;;577.23;535.00;;;3.90;99.90;;;;;;5034252;28;20209;-82
2021/12/10 07:45:51;;;;;;;578.73;536.83;;;4.00;99.90;;;;;;5063199;28;20251;-81
2021/12/10 07:48:19;;;;;;;596.27;554.37;;;4.00;99.90;;;;;;5060662;28;20209;-82
2021/12/10 07:50:59;;;;;;;568.77;526.33;;;4.00;99.90;;;;;;5048631;28;20229;-80
2021/12/10 07:53:28;;;;;;;578.53;536.37;;;4.00;99.90;;;;;;5059456;28;20362;-81
2021/12/10 07:55:56;;;;;;;585.17;543.17;;;4.00;99.90;;;;;;5059363;28;20252;-82
2021/12/10 07:58:23;;;;;;;574.80;531.80;;;4.00;99.90;;;;;;5057608;28;20182;-81
2021/12/10 08:00:49;;;;;;;589.83;546.47;;;4.00;99.90;;;;;;5058217;28;20221;-82
2021/12/10 08:03:15;;;;;;;589.83;547.03;;;4.10;99.90;;;;;;5047781;28;20264;-83
2021/12/10 08:05:42;;;;;;;582.83;540.33;;;4.00;99.90;;;;;;5046750;28;20204;-81
2021/12/10 08:08:08;;;;;;;574.43;531.23;;;4.10;99.90;;;;;;5059283;28;20212;-81
2021/12/10 08:10:36;;;;;;;589.10;547.07;;;4.00;99.90;;;;;;5046368;28;20320;-82
2021/12/10 08:13:01;;;;;;;586.73;545.90;;;4.00;99.90;;;;;;5079077;28;20607;-82
2021/12/10 08:15:27;;;;;;;571.33;529.87;;;4.10;99.90;;;;;;5068306;28;20312;-82
2021/12/10 08:17:54;;;;;;;566.60;525.60;;;4.10;99.90;;;;;;5050776;28;20225;-83
2021/12/10 08:20:23;;;;;;;562.07;520.93;;;4.10;99.90;;;;;;5068041;28;20205;-83
2021/12/10 08:22:50;;;;;;;570.57;529.07;;;4.10;99.90;;;;;;5068792;28;20185;-82
2021/12/10 08:25:18;;;;;;;567.50;526.53;;;4.10;99.90;;;;;;5067954;28;20584;-83
2021/12/10 08:27:43;;;;;;;558.23;517.73;;;4.10;99.90;;;;;;5065594;28;20216;-82
2021/12/10 08:30:13;;;;;;;554.10;512.87;;;4.10;99.90;;;;;;5066805;28;20186;-83
2021/12/10 08:32:39;;;;;;;566.77;524.87;;;4.20;99.90;;;;;;5066672;28;20619;-82
2021/12/10 08:35:09;;;;;;;560.70;518.67;;;4.10;99.90;;;;;;5068382;28;20220;-80
2021/12/10 08:37:35;;;;;;;581.40;539.30;;;4.10;99.90;;;;;;5065219;28;22110;-80
2021/12/10 08:40:01;;;;;;;574.47;532.07;;;4.10;99.90;;;;;;5067971;28;20701;-81
2021/12/10 08:42:27;;;;;;;577.57;534.30;;;4.10;99.90;;;;;;5065846;28;20197;-79
2021/12/10 08:44:53;;;;;;;582.67;540.27;;;4.10;99.90;;;;;;5053777;28;20196;-82
2021/12/10 08:47:18;;;;;;;573.03;530.47;;;4.10;99.90;;;;;;5064277;28;20585;-80
2021/12/10 08:49:47;;;;;;;571.57;529.87;;;4.10;99.90;;;;;;5065445;28;20210;-81
2021/12/10 08:52:18;;;;;;;575.40;533.57;;;4.10;99.90;;;;;;5039019;28;20190;-81
2021/12/10 08:54:44;;;;;;;578.47;536.57;;;4.10;99.90;;;;;;5080902;28;20861;-82
2021/12/10 08:57:10;;;;;;;562.63;520.67;;;4.10;99.90;;;;;;5063292;28;20202;-81
2021/12/10 08:59:38;;;;;;;568.07;526.23;;;4.10;99.90;;;;;;5054857;28;20246;-81
2021/12/10 09:02:10;;;;;;;552.23;510.50;;;4.10;99.90;;;;;;5079613;28;20313;-80
2021/12/10 09:04:36;;;;;;;552.67;512.10;;;4.10;99.90;;;;;;5065415;28;20197;-82
2021/12/10 09:07:13;;;;;;;566.80;526.07;;;4.10;99.90;;;;;;5036502;28;20646;-81
2021/12/10 09:09:42;;;;;;;547.07;505.93;;;4.10;99.90;;;;;;5085240;28;20210;-81
2021/12/10 09:12:14;;;;;;;559.27;518.63;;;4.10;99.90;;;;;;5063653;28;20248;-80
2021/12/10 09:14:45;;;;;;;553.87;513.10;;;4.10;99.90;;;;;;5063482;28;20212;-80
2021/12/10 09:17:16;;;;;;;570.97;530.10;;;4.20;99.90;;;;;;5069052;28;20282;-79
2021/12/10 09:19:42;;;;;;;551.40;510.03;;;4.10;99.90;;;;;;5064179;28;20213;-80
2021/12/10 09:22:09;;;;;;;563.57;523.17;;;4.20;99.90;;;;;;5065004;28;20185;-81
2021/12/10 09:24:36;;;;;;;571.13;530.63;;;4.20;99.90;;;;;;5069986;28;20243;-80
2021/12/10 09:27:03;;;;;;;502.43;466.00;;;4.20;99.90;;;;;;5063175;28;20677;-80
2021/12/10 09:29:35;;;;;;;506.67;470.67;;;4.20;99.90;;;;;;5059166;28;20277;-80
2021/12/10 09:32:02;;;;;;;555.97;516.63;;;4.30;99.90;;;;;;5083757;28;20569;-80
2021/12/10 09:34:28;;;;;;;540.70;501.67;;;4.30;99.90;;;;;;5049541;28;20663;-79
2021/12/10 09:36:54;;;;;;;517.50;481.93;;;4.30;99.90;;;;;;5067920;28;20256;-79
2021/12/10 09:39:21;;;;;;;500.03;464.57;;;4.30;99.90;;;;;;5034296;28;20185;-80
2021/12/10 09:41:48;;;;;;;503.60;468.10;;;4.30;99.90;;;;;;5066913;28;20320;-81
2021/12/10 09:44:17;;;;;;;497.60;462.80;;;4.30;99.90;;;;;;5067631;28;20193;-80
2021/12/10 09:46:46;;;;;;;504.83;470.23;;;4.30;99.90;;;;;;5034914;28;20194;-79
2021/12/10 09:49:12;;;;;;;491.17;456.40;;;4.30;99.90;;;;;;5065820;28;20217;-81
2021/12/10 09:51:43;;;;;;;494.33;460.10;;;4.30;99.90;;;;;;5059267;28;20583;-81
2021/12/10 09:54:13;;;;;;;485.73;451.43;;;4.30;99.90;;;;;;5061611;28;20220;-82
2021/12/10 09:56:44;;;;;;;484.00;449.37;;;4.30;99.90;;;;;;5061511;28;20181;-81
2021/12/10 09:59:10;;;;;;;481.83;447.90;;;4.40;99.90;;;;;;5061476;28;20189;-81
2021/12/10 10:01:42;;;;;;;492.07;457.40;;;4.40;99.90;;;;;;5068025;28;20225;-81
2021/12/10 10:04:10;;;;;;;496.97;461.97;;;4.40;99.90;;;;;;5082848;28;20209;-81
2021/12/10 10:06:43;;;;;;;512.80;477.00;;;4.40;99.90;;;;;;5049012;28;20196;-80
2021/12/10 10:09:12;;;;;;;506.13;470.37;;;4.50;99.90;;;;;;5065000;28;20298;-81
2021/12/10 10:11:38;;;;;;;510.87;474.43;;;4.50;99.90;;;;;;5060148;28;20741;-81
2021/12/10 10:14:05;;;;;;;590.40;547.53;;;4.60;99.90;;;;;;5049803;28;20200;-80
2021/12/10 10:16:34;;;;;;;585.10;542.43;;;4.60;99.90;;;;;;5050770;28;20186;-81
2021/12/10 10:19:01;;;;;;;567.33;524.23;;;4.70;99.90;;;;;;5065365;28;20206;-81
2021/12/10 10:21:34;;;;;;;581.10;537.30;;;4.70;99.90;;;;;;5060453;28;20218;-81
2021/12/10 10:24:03;;;;;;;577.37;534.30;;;4.80;99.90;;;;;;5058015;28;20189;-81
2021/12/10 10:26:39;;;;;;;598.60;554.97;;;4.70;99.90;;;;;;5060383;28;20285;-81
2021/12/10 10:29:15;;;;;;;582.67;539.30;;;4.70;99.90;;;;;;5060408;28;20315;-80
2021/12/10 10:31:48;;;;;;;580.40;536.63;;;4.70;99.90;;;;;;5074770;28;20266;-81
2021/12/10 10:34:14;;;;;;;567.67;524.73;;;4.80;99.90;;;;;;5065238;28;20201;-82
2021/12/10 10:36:40;;;;;;;569.67;526.47;;;4.80;99.90;;;;;;5058662;28;20256;-80
2021/12/10 10:39:19;;;;;;;579.60;537.07;;;4.80;99.90;;;;;;5049016;28;20214;-81
2021/12/10 10:41:48;;;;;;;560.43;518.40;;;4.70;99.90;;;;;;5060263;28;20334;-80
2021/12/10 10:44:17;;;;;;;553.70;511.80;;;4.60;99.90;;;;;;5059783;28;20181;-80
2021/12/10 10:46:44;;;;;;;569.80;527.77;;;4.50;99.90;;;;;;5032540;28;20186;-81
2021/12/10 10:49:10;;;;;;;560.80;518.53;;;4.50;99.90;;;;;;5059941;28;20233;-80
2021/12/10 10:51:41;;;;;;;571.30;528.33;;;4.50;99.90;;;;;;5042652;28;20220;-80
2021/12/10 10:54:11;;;;;;;566.43;524.20;;;4.60;99.90;;;;;;5059980;28;20597;-82
2021/12/10 10:56:46;;;;;;;559.50;517.23;;;4.60;99.90;;;;;;5059658;28;20241;-80
2021/12/10 10:59:23;;;;;;;567.97;525.63;;;4.70;99.90;;;;;;5059239;28;20188;-80
2021/12/10 11:01:59;;;;;;;565.83;523.97;;;4.70;99.90;;;;;;5082875;28;20224;-81
2021/12/10 11:04:38;;;;;;;553.60;511.30;;;4.70;99.90;;;;;;5058535;28;20201;-80
2021/12/10 11:07:13;;;;;;;559.87;517.20;;;4.80;99.90;;;;;;5065906;28;20225;-81
2021/12/10 11:10:04;;;;;;;561.60;518.33;;;4.80;99.90;;;;;;5061563;28;20267;-80
2021/12/10 11:12:38;;;;;;;570.93;528.13;;;4.80;99.90;;;;;;5080803;28;20185;-79
2021/12/10 11:15:17;;;;;;;563.13;519.37;;;5.00;99.90;;;;;;5059544;28;20235;-79
2021/12/10 11:17:54;;;;;;;578.03;534.27;;;4.90;99.90;;;;;;5065570;28;20297;-81
2021/12/10 11:20:29;;;;;;;564.50;521.43;;;5.10;99.90;;;;;;5064560;28;20572;-80
2021/12/10 11:22:59;;;;;;;563.57;520.30;;;5.00;99.90;;;;;;5060908;28;20192;-79
2021/12/10 11:25:41;;;;;;;562.20;518.40;;;5.20;99.90;;;;;;5066232;28;20189;-80
2021/12/10 11:28:08;;;;;;;568.90;525.30;;;5.20;99.90;;;;;;5058541;28;20289;-81
2021/12/10 11:30:34;;;;;;;574.77;530.57;;;5.20;99.90;;;;;;5066000;28;20964;-81
2021/12/10 11:33:13;;;;;;;572.30;528.77;;;5.20;99.90;;;;;;5057462;28;20194;-80
2021/12/10 11:35:44;;;;;;;564.47;520.97;;;5.30;99.90;;;;;;5060612;28;20201;-81
2021/12/10 11:38:20;;;;;;;574.43;530.23;;;5.30;99.90;;;;;;5061966;28;20194;-81
2021/12/10 11:40:54;;;;;;;565.03;521.33;;;5.20;99.90;;;;;;5057954;28;20185;-81
2021/12/10 11:43:56;;;;;;;567.93;523.67;;;5.20;99.90;;;;;;5056896;28;20213;-79
2021/12/10 11:46:31;;;;;;;577.80;533.90;;;5.20;99.90;;;;;;5060970;28;20275;-79
2021/12/10 11:49:17;;;;;;;576.60;532.73;;;5.20;99.90;;;;;;5057812;28;20225;-81
2021/12/10 11:51:59;;;;;;;564.70;520.77;;;5.20;99.90;;;;;;5059385;28;20181;-81
2021/12/10 11:54:40;;;;;;;559.37;515.73;;;5.20;99.90;;;;;;5060320;28;20608;-81
2021/12/10 11:57:25;;;;;;;564.77;521.03;;;5.20;99.90;;;;;;5060271;28;20181;-81
2021/12/10 12:00:02;;;;;;;569.13;524.97;;;5.20;99.90;;;;;;5060027;28;20977;-80
2021/12/10 12:02:33;;;;;;;559.67;516.27;;;5.20;99.90;;;;;;5064998;28;20189;-80
2021/12/10 12:05:03;;;;;;;563.23;519.53;;;5.20;99.90;;;;;;5058439;28;20224;-79
2021/12/10 12:07:41;;;;;;;560.60;516.80;;;5.20;99.90;;;;;;5059967;28;20363;-80
2021/12/10 12:10:30;;;;;;;559.73;516.23;;;5.20;99.90;;;;;;5059798;28;20193;-82
2021/12/10 12:16:13;;;;;;;560.43;517.07;;;5.20;99.90;;;;;;5062166;28;20580;-83
2021/12/10 12:18:52;;;;;;;556.80;514.00;;;5.30;99.90;;;;;;5066577;28;20181;-82
2021/12/10 12:27:12;;;;;;;574.40;531.10;;;5.60;99.90;;;;;;5062667;28;20177;-82
2021/12/10 12:29:55;;;;;;;563.83;520.80;;;5.70;99.90;;;;;;5061301;28;20216;-82
2021/12/10 12:32:32;;;;;;;558.10;514.93;;;5.80;99.90;;;;;;5077746;28;20178;-82
2021/12/10 12:35:16;;;;;;;560.63;517.83;;;5.80;99.90;;;;;;5067062;28;20189;-81
2021/12/10 12:37:44;;;;;;;555.87;513.90;;;5.80;99.90;;;;;;5070873;28;20198;-82
2021/12/10 12:40:10;;;;;;;549.97;507.63;;;5.80;99.90;;;;;;5058020;28;20170;-83
2021/12/10 12:42:45;;;;;;;552.03;510.20;;;5.80;99.90;;;;;;5067916;28;20197;-83
2021/12/10 12:45:23;;;;;;;558.93;517.23;;;5.80;99.90;;;;;;5065813;28;20170;-81
2021/12/10 12:47:52;;;;;;;436.20;404.73;;;5.80;99.90;;;;;;5065644;28;20185;-83